Time;durP1;ratioP1;P1;durP2;ratioP2;P2;SDS_P1;SDS_P2;PMS_P1;PMS_P2;Temp;Humidity;BMP_temperature;BMP_pressure;BME280_temperature;BME280_humidity;BME280_pressure;Samples;Min_cycle;Max_cycle;Signal;HPM_P1;HPM_P2
2023/12/29 00:00:07;;;;;;;12.20;2.67;;;;;;;9.83;100.00;100521.81;5071699;28;20136;-46
2023/12/29 00:02:35;;;;;;;12.90;2.08;;;;;;;9.89;100.00;100529.25;5071873;28;20044;-47
2023/12/29 00:05:04;;;;;;;9.35;1.92;;;;;;;9.85;100.00;100525.16;5070294;28;20139;-46
2023/12/29 00:07:33;;;;;;;8.60;1.55;;;;;;;9.89;100.00;100525.81;5071848;28;20040;-49
2023/12/29 00:10:02;;;;;;;13.43;2.33;;;;;;;9.87;100.00;100525.91;5071685;28;20048;-48
2023/12/29 00:12:31;;;;;;;13.00;2.50;;;;;;;9.83;100.00;100511.31;5071630;28;20044;-47
2023/12/29 00:14:59;;;;;;;12.00;2.05;;;;;;;9.86;100.00;100497.09;5071143;28;20071;-45
2023/12/29 00:17:32;;;;;;;13.90;2.13;;;;;;;9.87;100.00;100515.41;5071327;28;20128;-47
2023/12/29 00:20:00;;;;;;;9.48;1.70;;;;;;;9.85;100.00;100519.06;5071646;28;20052;-49
2023/12/29 00:22:28;;;;;;;10.40;1.80;;;;;;;9.84;100.00;100523.47;5069908;28;20495;-47
2023/12/29 00:24:56;;;;;;;9.25;2.13;;;;;;;9.88;100.00;100510.97;5067967;28;20396;-47
2023/12/29 00:27:27;;;;;;;8.40;1.60;;;;;;;9.88;100.00;100522.31;5070372;28;20048;-49
2023/12/29 00:29:57;;;;;;;6.55;1.20;;;;;;;9.89;100.00;100520.53;5071596;28;20040;-47
2023/12/29 00:32:25;;;;;;;10.48;1.90;;;;;;;9.87;100.00;100510.16;5071438;28;20059;-49
2023/12/29 00:34:53;;;;;;;11.45;2.15;;;;;;;9.76;100.00;100502.13;5071477;28;20079;-49
2023/12/29 00:37:22;;;;;;;11.07;1.92;;;;;;;9.68;100.00;100504.44;5071566;28;20119;-49
2023/12/29 00:39:51;;;;;;;7.90;1.40;;;;;;;9.64;100.00;100486.25;5071748;28;20087;-50
2023/12/29 00:42:19;;;;;;;8.85;1.75;;;;;;;9.63;100.00;100489.81;5071419;28;20052;-50
2023/12/29 00:44:47;;;;;;;10.18;1.85;;;;;;;9.62;100.00;100475.00;5071073;28;20063;-49
2023/12/29 00:47:19;;;;;;;8.57;1.80;;;;;;;9.61;100.00;100486.47;5070877;28;20037;-45
2023/12/29 00:49:47;;;;;;;16.02;2.05;;;;;;;9.63;100.00;100483.75;5073664;28;20499;-48
2023/12/29 00:52:16;;;;;;;9.50;2.15;;;;;;;9.64;100.00;100496.75;5075243;28;20041;-48
2023/12/29 00:54:44;;;;;;;12.32;1.95;;;;;;;9.67;100.00;100479.09;5072128;28;20068;-48
2023/12/29 00:57:12;;;;;;;10.40;2.00;;;;;;;9.72;100.00;100491.00;5070993;28;20051;-47
2023/12/29 00:59:43;;;;;;;10.35;1.75;;;;;;;9.74;100.00;100485.66;5071359;28;20508;-45
2023/12/29 01:02:12;;;;;;;13.02;2.30;;;;;;;9.75;100.00;100487.34;5071768;28;20543;-48
2023/12/29 01:04:41;;;;;;;8.02;1.65;;;;;;;9.75;100.00;100482.09;5075145;28;20078;-48
2023/12/29 01:07:10;;;;;;;7.97;1.80;;;;;;;9.77;100.00;100474.94;5075229;28;20043;-47
2023/12/29 01:09:39;;;;;;;10.98;1.77;;;;;;;9.77;100.00;100475.75;5075253;28;20056;-46
2023/12/29 01:12:08;;;;;;;11.10;1.63;;;;;;;9.75;100.00;100471.59;5075102;28;20663;-48
2023/12/29 01:14:36;;;;;;;7.85;1.90;;;;;;;9.74;100.00;100485.66;5075066;28;20052;-45
2023/12/29 01:17:04;;;;;;;9.80;1.90;;;;;;;9.74;100.00;100480.41;5074864;28;20049;-48
2023/12/29 01:19:33;;;;;;;9.43;1.95;;;;;;;9.71;100.00;100470.09;5074947;28;20056;-46
2023/12/29 01:22:02;;;;;;;10.48;2.03;;;;;;;9.70;100.00;100463.16;5074903;28;20036;-48
2023/12/29 01:24:31;;;;;;;8.45;1.60;;;;;;;9.66;100.00;100452.03;5074932;28;20502;-46
2023/12/29 01:27:09;;;;;;;11.50;1.63;;;;;;;9.63;100.00;100458.31;5073623;28;20399;-47
2023/12/29 01:29:38;;;;;;;9.13;1.70;;;;;;;9.57;100.00;100466.63;5074644;28;20094;-46
2023/12/29 01:32:08;;;;;;;11.73;2.00;;;;;;;9.53;100.00;100467.78;5074588;28;20102;-47
2023/12/29 01:34:39;;;;;;;11.52;2.33;;;;;;;9.50;100.00;100462.69;5074720;28;20476;-46
2023/12/29 01:37:08;;;;;;;11.40;1.85;;;;;;;9.47;100.00;100468.16;5074465;28;20040;-47
2023/12/29 01:39:37;;;;;;;9.85;1.52;;;;;;;9.45;100.00;100475.31;5074658;28;20076;-47
2023/12/29 01:42:05;;;;;;;12.32;1.80;;;;;;;9.43;100.00;100466.69;5071183;28;20044;-47
2023/12/29 01:44:33;;;;;;;14.10;2.15;;;;;;;9.43;100.00;100464.88;5070384;28;20049;-46
2023/12/29 01:47:02;;;;;;;10.57;1.67;;;;;;;9.44;100.00;100477.09;5074357;28;20394;-48
2023/12/29 01:49:31;;;;;;;9.32;2.00;;;;;;;9.42;100.00;100465.84;5074044;28;20090;-48
2023/12/29 01:52:01;;;;;;;12.75;1.85;;;;;;;9.40;100.00;100461.66;5073645;28;20044;-45
2023/12/29 01:54:33;;;;;;;9.52;1.73;;;;;;;9.41;100.00;100465.97;5074127;28;20098;-47
2023/12/29 01:57:03;;;;;;;9.85;2.03;;;;;;;9.39;100.00;100467.84;5074085;28;20044;-47
2023/12/29 01:59:31;;;;;;;7.45;1.52;;;;;;;9.37;100.00;100454.00;5074069;28;20060;-48
2023/12/29 02:02:00;;;;;;;10.13;1.80;;;;;;;9.38;100.00;100453.03;5074275;28;20444;-46
2023/12/29 02:04:29;;;;;;;8.70;1.85;;;;;;;9.39;100.00;100460.78;5072693;28;20051;-50
2023/12/29 02:06:58;;;;;;;8.75;2.05;;;;;;;9.45;100.00;100459.56;5074225;28;20048;-49
2023/12/29 02:09:28;;;;;;;9.27;1.77;;;;;;;9.40;100.00;100457.22;5074169;28;20138;-50
2023/12/29 02:11:57;;;;;;;8.80;1.60;;;;;;;9.40;100.00;100461.66;5073380;28;20452;-50
2023/12/29 02:14:26;;;;;;;9.38;1.85;;;;;;;9.38;100.00;100474.00;5069778;28;20059;-45
2023/12/29 02:17:03;;;;;;;9.07;1.73;;;;;;;9.38;100.00;100471.38;5071660;28;20452;-46
2023/12/29 02:19:50;;;;;;;8.65;1.80;;;;;;;9.37;100.00;100473.19;5071493;28;20040;-58
2023/12/29 02:22:19;;;;;;;6.07;1.40;;;;;;;9.35;100.00;100471.59;5070530;28;20134;-58
2023/12/29 02:24:49;;;;;;;8.88;1.67;;;;;;;9.32;100.00;100479.69;5073709;28;20102;-57
2023/12/29 02:27:30;;;;;;;9.00;1.83;;;;;;;9.28;100.00;100472.03;5069970;28;20078;-58
2023/12/29 02:30:10;;;;;;;8.20;1.60;;;;;;;9.26;100.00;100475.69;5070099;28;20110;-58
2023/12/29 02:32:43;;;;;;;;;;;;;;;9.29;100.00;100464.97;5073428;28;20507;-58
2023/12/29 02:35:14;;;;;;;12.05;1.83;;;;;;;9.23;100.00;100455.72;5073349;28;19924;-58
2023/12/29 02:37:43;;;;;;;8.60;1.50;;;;;;;9.23;100.00;100455.72;5073229;28;20080;-58
2023/12/29 02:40:15;;;;;;;12.93;2.10;;;;;;;9.16;100.00;100441.31;5071759;28;20040;-57
2023/12/29 02:42:48;;;;;;;8.98;1.80;;;;;;;9.16;100.00;100449.19;5069255;28;20063;-58
2023/12/29 02:45:16;;;;;;;7.82;1.77;;;;;;;9.14;100.00;100443.22;5073012;28;20448;-58
2023/12/29 02:47:45;;;;;;;6.88;1.75;;;;;;;9.12;100.00;100452.94;5073128;28;20052;-58
2023/12/29 02:50:13;;;;;;;9.32;1.70;;;;;;;9.13;100.00;100452.00;5073425;28;20083;-58
2023/12/29 02:52:41;;;;;;;9.73;1.40;;;;;;;9.11;100.00;100460.00;5071993;28;20135;-57
2023/12/29 02:55:10;;;;;;;6.35;1.67;;;;;;;9.11;100.00;100457.38;5072793;28;20044;-58
2023/12/29 02:57:40;;;;;;;10.68;2.15;;;;;;;9.11;100.00;100446.03;5072782;28;20071;-58
2023/12/29 03:00:09;;;;;;;10.93;2.20;;;;;;;9.11;100.00;100446.03;5072897;28;20045;-58
2023/12/29 03:02:37;;;;;;;13.25;1.90;;;;;;;9.10;100.00;100439.09;5071682;28;20055;-58
2023/12/29 03:05:07;;;;;;;11.07;2.10;;;;;;;9.11;100.00;100443.41;5072750;28;20080;-57
2023/12/29 03:07:36;;;;;;;8.95;1.60;;;;;;;9.11;100.00;100435.53;5068750;28;20056;-57
2023/12/29 03:10:05;;;;;;;13.40;2.28;;;;;;;9.12;100.00;100437.22;5069658;28;20519;-58
2023/12/29 03:12:33;;;;;;;11.38;2.30;;;;;;;9.16;100.00;100430.81;5072364;28;20071;-58
2023/12/29 03:15:03;;;;;;;13.75;2.45;;;;;;;9.12;100.00;100438.06;5072758;28;20249;-58
2023/12/29 03:17:32;;;;;;;10.35;1.83;;;;;;;9.13;100.00;100431.03;5072735;28;20093;-58
2023/12/29 03:20:00;;;;;;;11.35;2.10;;;;;;;9.11;100.00;100430.31;5072524;28;20044;-58
2023/12/29 03:22:28;;;;;;;13.00;1.80;;;;;;;9.14;100.00;100430.09;5069615;28;20102;-57
2023/12/29 03:24:56;;;;;;;10.23;2.25;;;;;;;9.17;100.00;100423.81;5069583;28;20082;-58
2023/12/29 03:27:24;;;;;;;11.15;1.80;;;;;;;9.14;100.00;100436.16;5070996;28;20057;-57
2023/12/29 03:29:53;;;;;;;9.45;1.70;;;;;;;9.20;100.00;100436.72;5072358;28;20055;-58
2023/12/29 03:32:22;;;;;;;10.02;1.60;;;;;;;9.20;100.00;100439.34;5069718;28;20048;-58
2023/12/29 03:34:50;;;;;;;10.95;1.63;;;;;;;9.24;100.00;100443.44;5069183;28;20044;-58
2023/12/29 03:37:19;;;;;;;13.85;2.00;;;;;;;9.22;100.00;100433.06;5071920;28;20044;-58
2023/12/29 03:39:47;;;;;;;9.52;1.88;;;;;;;9.22;100.00;100432.22;5072425;28;20492;-58
2023/12/29 03:42:15;;;;;;;10.65;1.60;;;;;;;9.23;100.00;100440.00;5069849;28;20063;-58
2023/12/29 03:44:43;;;;;;;10.63;1.95;;;;;;;9.22;100.00;100438.31;5069026;28;20059;-47
2023/12/29 03:47:11;;;;;;;12.80;2.35;;;;;;;9.23;100.00;100434.75;5070566;28;20048;-45
2023/12/29 03:49:41;;;;;;;11.43;1.92;;;;;;;9.24;100.00;100433.81;5072031;28;20048;-58
2023/12/29 03:52:09;;;;;;;14.85;2.33;;;;;;;9.27;100.00;100435.34;5072520;28;20135;-58
2023/12/29 03:54:38;;;;;;;9.63;1.98;;;;;;;9.30;100.00;100441.25;5072036;28;20094;-58
2023/12/29 03:57:06;;;;;;;11.85;1.90;;;;;;;9.26;100.00;100434.53;5071895;28;20048;-50
2023/12/29 03:59:37;;;;;;;7.38;2.15;;;;;;;9.28;100.00;100426.56;5071574;28;20510;-57
2023/12/29 04:02:06;;;;;;;14.27;2.33;;;;;;;9.30;100.00;100430.75;5071372;28;20048;-59
2023/12/29 04:04:37;;;;;;;14.38;2.38;;;;;;;9.32;100.00;100432.44;5071721;28;20040;-58
2023/12/29 04:07:09;;;;;;;10.32;1.55;;;;;;;9.35;100.00;100440.09;5071359;28;20056;-58
2023/12/29 04:09:37;;;;;;;12.18;1.80;;;;;;;9.34;100.00;100438.41;5071717;28;20037;-58
2023/12/29 04:12:06;;;;;;;10.15;2.22;;;;;;;9.36;100.00;100428.69;5071682;28;20058;-58
2023/12/29 04:14:34;;;;;;;15.13;2.63;;;;;;;9.37;100.00;100431.19;5071713;28;20052;-58
2023/12/29 04:17:04;;;;;;;14.60;3.10;;;;;;;9.39;100.00;100428.47;5071981;28;20518;-58
2023/12/29 04:19:32;;;;;;;10.80;1.90;;;;;;;9.42;100.00;100430.88;5071908;28;20115;-59
2023/12/29 04:22:00;;;;;;;10.30;2.00;;;;;;;9.45;100.00;100434.16;5072024;28;20500;-59
2023/12/29 04:24:30;;;;;;;12.98;2.65;;;;;;;9.48;100.00;100433.94;5070844;28;20522;-59
2023/12/29 04:27:01;;;;;;;10.35;2.15;;;;;;;9.47;100.00;100437.53;5068259;28;20148;-58
2023/12/29 04:29:29;;;;;;;12.93;2.33;;;;;;;9.43;100.00;100432.56;5067986;28;20048;-58
2023/12/29 04:31:57;;;;;;;12.80;2.60;;;;;;;9.42;100.00;100429.13;5071405;28;20040;-58
2023/12/29 04:34:26;;;;;;;14.43;2.03;;;;;;;9.42;100.00;100425.63;5071501;28;20145;-58
2023/12/29 04:36:54;;;;;;;13.98;2.33;;;;;;;9.41;100.00;100434.47;5071499;28;20052;-58
2023/12/29 04:39:22;;;;;;;17.02;2.90;;;;;;;9.41;100.00;100434.47;5068386;28;20041;-58
2023/12/29 04:41:52;;;;;;;10.18;2.22;;;;;;;9.40;100.00;100441.47;5067879;28;20168;-59
2023/12/29 04:44:20;;;;;;;11.88;2.33;;;;;;;9.41;100.00;100444.97;5071511;28;20518;-59
2023/12/29 04:46:48;;;;;;;11.00;1.73;;;;;;;9.42;100.00;100446.63;5070103;28;20381;-58
2023/12/29 04:49:19;;;;;;;16.77;2.63;;;;;;;9.43;100.00;100435.19;5069837;28;20075;-58
2023/12/29 04:51:48;;;;;;;14.35;2.63;;;;;;;9.46;100.00;100448.97;5071179;28;20076;-58
2023/12/29 04:54:16;;;;;;;10.90;2.30;;;;;;;9.44;100.00;100452.63;5071118;28;20048;-58
2023/12/29 04:56:44;;;;;;;11.38;2.13;;;;;;;9.42;100.00;100447.47;5071081;28;20084;-59
2023/12/29 04:59:16;;;;;;;14.98;2.67;;;;;;;9.41;100.00;100448.41;5071358;28;20033;-58
2023/12/29 05:01:45;;;;;;;14.25;2.17;;;;;;;9.48;100.00;100459.34;5071463;28;20052;-59
2023/12/29 05:04:14;;;;;;;15.27;2.60;;;;;;;9.47;100.00;100441.91;5071239;28;20041;-58
2023/12/29 05:06:43;;;;;;;15.88;2.40;;;;;;;9.51;100.00;100453.88;5069790;28;20052;-59
2023/12/29 05:09:11;;;;;;;12.02;2.15;;;;;;;9.49;100.00;100447.91;5071226;28;20105;-58
2023/12/29 05:11:40;;;;;;;11.00;2.47;;;;;;;9.48;100.00;100444.44;5071293;28;20403;-59
2023/12/29 05:14:08;;;;;;;12.30;2.35;;;;;;;9.48;100.00;100454.09;5071221;28;20127;-58
2023/12/29 05:16:38;;;;;;;11.13;1.95;;;;;;;9.49;100.00;100442.66;5071113;28;20094;-57
2023/12/29 05:19:06;;;;;;;10.77;2.28;;;;;;;9.50;100.00;100440.88;5070908;28;20433;-58
2023/12/29 05:21:34;;;;;;;14.80;2.65;;;;;;;9.51;100.00;100440.75;5071459;28;20492;-58
2023/12/29 05:24:04;;;;;;;16.55;2.88;;;;;;;9.51;100.00;100445.19;5070640;28;20543;-58
2023/12/29 05:26:32;;;;;;;11.98;2.17;;;;;;;9.51;100.00;100447.81;5068670;28;20094;-59
2023/12/29 05:29:00;;;;;;;15.20;2.85;;;;;;;9.51;100.00;100432.06;5065494;28;20395;-58
2023/12/29 05:31:28;;;;;;;16.52;2.38;;;;;;;9.47;100.00;100445.41;5070012;28;20049;-59
2023/12/29 05:33:58;;;;;;;12.18;2.53;;;;;;;9.44;100.00;100442.13;5070857;28;20122;-58
2023/12/29 05:36:26;;;;;;;18.08;2.78;;;;;;;9.46;100.00;100451.59;5073726;28;20048;-58
2023/12/29 05:38:54;;;;;;;13.70;3.10;;;;;;;9.46;100.00;100451.59;5074721;28;20517;-58
2023/12/29 05:41:23;;;;;;;15.68;2.72;;;;;;;9.42;100.00;100450.09;5072710;28;20089;-57
2023/12/29 05:43:51;;;;;;;16.02;3.15;;;;;;;9.42;100.00;100451.88;5074154;28;20044;-58
2023/12/29 05:46:19;;;;;;;15.25;2.65;;;;;;;9.43;100.00;100466.69;5074269;28;20066;-58
2023/12/29 05:48:48;;;;;;;15.50;2.80;;;;;;;9.41;100.00;100464.16;5074274;28;20044;-59
2023/12/29 05:51:18;;;;;;;12.50;1.90;;;;;;;9.38;100.00;100446.00;5073210;28;20052;-59
2023/12/29 05:53:46;;;;;;;14.10;2.33;;;;;;;9.37;100.00;100465.31;5071192;28;20044;-59
2023/12/29 05:56:15;;;;;;;11.05;2.42;;;;;;;9.34;100.00;100462.91;5072665;28;20048;-58
2023/12/29 05:58:46;;;;;;;16.80;2.58;;;;;;;9.30;100.00;100464.88;5074000;28;20082;-58
2023/12/29 06:01:14;;;;;;;13.10;2.00;;;;;;;9.30;100.00;100464.88;5072693;28;20575;-59
2023/12/29 06:03:46;;;;;;;18.73;2.92;;;;;;;9.29;100.00;100451.84;5073972;28;20489;-59
2023/12/29 06:06:14;;;;;;;11.93;2.58;;;;;;;9.28;100.00;100448.41;5070803;28;20084;-58
2023/12/29 06:08:44;;;;;;;17.70;2.30;;;;;;;9.27;100.00;100467.72;5070925;28;20071;-58
2023/12/29 06:11:15;;;;;;;17.60;2.53;;;;;;;9.23;100.00;100468.84;5070483;28;20033;-58
2023/12/29 06:13:44;;;;;;;19.65;2.55;;;;;;;9.20;100.00;100457.69;5069619;28;20048;-58
2023/12/29 06:16:18;;;;;;;14.00;2.28;;;;;;;9.19;100.00;100474.38;5071078;28;20094;-57
2023/12/29 06:18:47;;;;;;;15.07;2.17;;;;;;;9.18;100.00;100459.59;5073569;28;20123;-58
2023/12/29 06:21:18;;;;;;;17.13;2.38;;;;;;;9.17;100.00;100452.66;5073619;28;20124;-58
2023/12/29 06:23:47;;;;;;;14.27;2.33;;;;;;;9.18;100.00;100455.19;5073587;28;20051;-59
2023/12/29 06:26:17;;;;;;;12.73;2.90;;;;;;;9.16;100.00;100464.09;5073534;28;20040;-58
2023/12/29 06:28:45;;;;;;;11.82;1.83;;;;;;;9.19;100.00;100459.50;5073525;28;20098;-58
2023/12/29 06:31:14;;;;;;;15.93;2.72;;;;;;;9.13;100.00;100458.13;5073436;28;20047;-59
2023/12/29 06:33:43;;;;;;;13.10;2.33;;;;;;;9.12;100.00;100458.19;5073454;28;20578;-58
2023/12/29 06:36:13;;;;;;;12.23;2.78;;;;;;;9.16;100.00;100451.81;5073529;28;20052;-58
2023/12/29 06:38:41;;;;;;;11.43;2.70;;;;;;;9.14;100.00;100444.03;5073137;28;20048;-57
2023/12/29 06:41:11;;;;;;;13.10;2.25;;;;;;;9.10;100.00;100450.44;5070225;28;20488;-57
2023/12/29 06:43:39;;;;;;;17.90;3.67;;;;;;;9.10;100.00;100441.72;5068998;28;20102;-57
2023/12/29 06:46:08;;;;;;;13.73;2.28;;;;;;;9.10;100.00;100446.97;5069247;28;20048;-47
2023/12/29 06:48:37;;;;;;;13.75;2.30;;;;;;;9.15;100.00;100455.41;5069447;28;20483;-46
2023/12/29 06:51:06;;;;;;;15.75;2.50;;;;;;;9.11;100.00;100452.13;5072572;28;20142;-47
2023/12/29 06:53:34;;;;;;;14.70;2.95;;;;;;;9.13;100.00;100452.88;5073294;28;20507;-47
2023/12/29 06:56:02;;;;;;;10.98;2.00;;;;;;;9.14;100.00;100462.41;5072884;28;20063;-47
2023/12/29 06:58:33;;;;;;;12.82;2.10;;;;;;;9.14;100.00;100469.44;5071449;28;20043;-47
2023/12/29 07:01:01;;;;;;;10.98;2.22;;;;;;;9.13;100.00;100465.13;5072762;28;20104;-48
2023/12/29 07:03:30;;;;;;;11.77;2.38;;;;;;;9.15;100.00;100471.13;5072694;28;20052;-47
2023/12/29 07:05:58;;;;;;;11.30;2.28;;;;;;;9.13;100.00;100462.50;5072400;28;20048;-50
2023/12/29 07:08:26;;;;;;;11.57;2.35;;;;;;;9.06;100.00;100469.09;5072277;28;20101;-49
2023/12/29 07:10:54;;;;;;;13.23;2.13;;;;;;;9.05;100.00;100464.78;5072249;28;20055;-48
2023/12/29 07:13:23;;;;;;;7.32;1.48;;;;;;;8.98;100.00;100466.13;5069297;28;20044;-48
2023/12/29 07:15:55;;;;;;;7.70;2.00;;;;;;;8.91;100.00;100463.91;5068885;28;20114;-47
2023/12/29 07:18:24;;;;;;;7.75;1.42;;;;;;;8.87;100.00;100458.94;5067407;28;20048;-50
2023/12/29 07:20:52;;;;;;;9.02;1.75;;;;;;;8.86;100.00;100465.13;5070050;28;20048;-46
2023/12/29 07:23:21;;;;;;;6.68;1.58;;;;;;;8.79;100.00;100446.31;5072271;28;20044;-47
2023/12/29 07:25:49;;;;;;;12.32;2.20;;;;;;;8.76;100.00;100442.13;5072620;28;20041;-49
2023/12/29 07:28:17;;;;;;;11.23;2.00;;;;;;;8.75;100.00;100447.47;5072161;28;20058;-46
2023/12/29 07:30:46;;;;;;;9.77;1.83;;;;;;;8.70;100.00;100447.75;5071965;28;20552;-48
2023/12/29 07:33:16;;;;;;;5.70;1.63;;;;;;;8.65;100.00;100443.75;5070745;28;20565;-47
2023/12/29 07:35:44;;;;;;;10.05;2.38;;;;;;;8.58;100.00;100449.38;5072326;28;20045;-49
2023/12/29 07:38:15;;;;;;;10.90;2.60;;;;;;;8.59;100.00;100440.56;5072313;28;20044;-49
2023/12/29 07:40:44;;;;;;;8.93;2.10;;;;;;;8.58;100.00;100435.44;5072565;28;20052;-47
2023/12/29 07:43:12;;;;;;;10.85;2.05;;;;;;;8.57;100.00;100436.38;5072441;28;20045;-49
2023/12/29 07:45:40;;;;;;;6.53;2.30;;;;;;;8.57;100.00;100433.75;5072593;28;20040;-50
2023/12/29 07:48:09;;;;;;;12.38;2.53;;;;;;;8.57;100.00;100425.88;5072009;28;20048;-48
2023/12/29 07:50:40;;;;;;;9.98;2.28;;;;;;;8.55;100.00;100423.38;5072080;28;20044;-48
2023/12/29 07:53:10;;;;;;;13.88;2.55;;;;;;;8.56;100.00;100414.56;5071838;28;20515;-49
2023/12/29 07:55:39;;;;;;;10.63;2.00;;;;;;;8.57;100.00;100421.47;5070644;28;20053;-47
2023/12/29 07:58:09;;;;;;;13.45;2.45;;;;;;;8.54;100.00;100421.66;5071915;28;20395;-48
2023/12/29 08:00:38;;;;;;;7.93;1.95;;;;;;;8.53;100.00;100414.75;5071680;28;20399;-49
2023/12/29 08:03:07;;;;;;;12.05;2.28;;;;;;;8.56;100.00;100404.09;5071866;28;20048;-47
2023/12/29 08:05:35;;;;;;;14.00;2.47;;;;;;;8.55;100.00;100415.50;5071785;28;20055;-46
2023/12/29 08:08:06;;;;;;;9.18;1.98;;;;;;;8.58;100.00;100425.78;5071833;28;20157;-48
2023/12/29 08:10:35;;;;;;;13.15;2.78;;;;;;;8.59;100.00;100421.41;5071813;28;20052;-47
2023/12/29 08:13:04;;;;;;;9.80;2.28;;;;;;;8.58;100.00;100431.03;5071749;28;20127;-47
2023/12/29 08:15:32;;;;;;;9.52;2.15;;;;;;;8.57;100.00;100437.19;5071761;28;20123;-46
2023/12/29 08:18:00;;;;;;;9.45;2.05;;;;;;;8.60;100.00;100438.78;5071558;28;20099;-47
2023/12/29 08:20:29;;;;;;;11.77;3.05;;;;;;;8.58;100.00;100432.81;5071624;28;20537;-48
2023/12/29 08:22:57;;;;;;;10.48;1.67;;;;;;;8.61;100.00;100438.69;5071816;28;20048;-49
2023/12/29 08:25:27;;;;;;;8.52;2.28;;;;;;;8.63;100.00;100431.59;5071665;28;20518;-46
2023/12/29 08:27:55;;;;;;;10.02;1.90;;;;;;;8.66;100.00;100435.78;5071601;28;20048;-47
2023/12/29 08:30:24;;;;;;;7.85;2.00;;;;;;;8.69;100.00;100437.38;5071550;28;20106;-47
2023/12/29 08:32:52;;;;;;;13.50;2.60;;;;;;;8.71;100.00;100453.84;5071603;28;20060;-48
2023/12/29 08:35:20;;;;;;;11.68;2.55;;;;;;;8.71;100.00;100453.84;5071628;28;20098;-49
2023/12/29 08:37:48;;;;;;;6.75;1.92;;;;;;;8.75;100.00;100444.84;5071939;28;20112;-46
2023/12/29 08:40:17;;;;;;;10.50;1.80;;;;;;;8.74;100.00;100448.38;5071650;28;20055;-46
2023/12/29 08:42:46;;;;;;;9.23;2.20;;;;;;;8.76;100.00;100447.34;5071072;28;20442;-47
2023/12/29 08:45:15;;;;;;;10.70;2.03;;;;;;;8.80;100.00;100463.75;5069990;28;20067;-49
2023/12/29 08:47:43;;;;;;;7.85;1.85;;;;;;;8.86;100.00;100459.88;5071283;28;20446;-49
2023/12/29 08:50:11;;;;;;;7.63;1.58;;;;;;;8.86;100.00;100463.38;5066635;28;20053;-48
2023/12/29 08:52:40;;;;;;;9.02;1.83;;;;;;;8.86;100.00;100463.38;5069406;28;20048;-48
2023/12/29 08:55:09;;;;;;;6.93;1.60;;;;;;;8.89;100.00;100460.53;5070377;28;20076;-47
2023/12/29 08:57:39;;;;;;;7.88;2.17;;;;;;;8.92;100.00;100457.72;5071134;28;20124;-51
2023/12/29 09:00:12;;;;;;;8.43;1.73;;;;;;;8.94;100.00;100457.63;5071326;28;20119;-51
2023/12/29 09:02:41;;;;;;;5.80;1.70;;;;;;;8.96;100.00;100451.34;5071391;28;20041;-51
2023/12/29 09:05:09;;;;;;;7.32;1.70;;;;;;;8.99;100.00;100446.84;5071271;28;20049;-50
2023/12/29 09:07:37;;;;;;;4.97;1.48;;;;;;;9.01;100.00;100450.19;5071409;28;20493;-49
2023/12/29 09:10:08;;;;;;;9.13;1.80;;;;;;;9.02;100.00;100442.22;5071982;28;20139;-45
2023/12/29 09:12:36;;;;;;;4.90;1.50;;;;;;;9.06;100.00;100445.50;5074922;28;20051;-48
2023/12/29 09:15:08;;;;;;;4.25;1.23;;;;;;;9.10;100.00;100441.72;5075011;28;20568;-47
2023/12/29 09:17:38;;;;;;;8.43;1.58;;;;;;;9.10;100.00;100445.19;5075027;28;20128;-49
2023/12/29 09:20:07;;;;;;;7.40;1.60;;;;;;;9.11;100.00;100448.66;5074971;28;20400;-47
2023/12/29 09:22:38;;;;;;;6.43;2.35;;;;;;;9.13;100.00;100452.00;5074768;28;20048;-49
2023/12/29 09:25:07;;;;;;;6.30;1.27;;;;;;;9.14;100.00;100459.78;5075003;28;20047;-47
2023/12/29 09:27:35;;;;;;;5.47;1.67;;;;;;;9.15;100.00;100468.50;5074829;28;20553;-48
2023/12/29 09:30:05;;;;;;;6.40;1.30;;;;;;;9.17;100.00;100471.88;5073436;28;20048;-47
2023/12/29 09:32:34;;;;;;;6.07;1.75;;;;;;;9.20;100.00;100468.19;5075080;28;20060;-46
2023/12/29 09:35:07;;;;;;;4.15;1.50;;;;;;;9.23;100.00;100462.75;5075309;28;20059;-47
2023/12/29 09:37:35;;;;;;;7.72;1.50;;;;;;;9.23;100.00;100471.47;5074863;28;20040;-48
2023/12/29 09:40:07;;;;;;;7.35;1.60;;;;;;;9.25;100.00;100460.88;5074233;28;20047;-50
2023/12/29 09:42:38;;;;;;;4.70;1.35;;;;;;;9.24;100.00;100472.31;5069050;28;20040;-48
2023/12/29 09:45:11;;;;;;;4.93;1.50;;;;;;;9.27;100.00;100472.09;5071913;28;20052;-48
2023/12/29 09:47:40;;;;;;;;;;;;;;;9.25;100.00;100477.44;5073807;28;20059;-45
2023/12/29 09:50:12;;;;;;;8.38;3.05;;;;;;;9.27;100.00;100474.72;5074359;28;19952;-49
2023/12/29 09:52:41;;;;;;;7.00;2.00;;;;;;;9.29;100.00;100485.97;5074621;28;20044;-46
2023/12/29 09:55:11;;;;;;;7.97;2.20;;;;;;;9.32;100.00;100485.75;5074448;28;20051;-46
2023/12/29 09:57:39;;;;;;;6.90;1.73;;;;;;;9.34;100.00;100486.53;5074348;28;20045;-47
2023/12/29 10:00:12;;;;;;;4.93;1.33;;;;;;;9.36;100.00;100484.63;5074280;28;20086;-46
2023/12/29 10:02:40;;;;;;;8.65;1.27;;;;;;;9.43;100.00;100485.88;5074114;28;20113;-47
2023/12/29 10:05:10;;;;;;;5.13;1.30;;;;;;;9.42;100.00;100491.25;5074280;28;20143;-46
2023/12/29 10:07:40;;;;;;;5.53;1.20;;;;;;;9.42;100.00;100486.00;5074513;28;20055;-46
2023/12/29 10:10:12;;;;;;;7.97;1.67;;;;;;;9.43;100.00;100493.75;5073778;28;20040;-45
2023/12/29 10:12:43;;;;;;;4.63;1.50;;;;;;;9.45;100.00;100491.91;5073693;28;20131;-47
2023/12/29 10:15:16;;;;;;;5.88;1.60;;;;;;;9.48;100.00;100490.84;5073770;28;20084;-47
2023/12/29 10:17:53;;;;;;;5.63;1.40;;;;;;;9.48;100.00;100481.19;5072834;28;20076;-47
2023/12/29 10:20:34;;;;;;;5.00;1.25;;;;;;;9.55;100.00;100486.03;5073823;28;20067;-47
2023/12/29 10:23:08;;;;;;;4.25;1.10;;;;;;;9.59;100.00;100490.16;5072619;28;20044;-46
2023/12/29 10:25:36;;;;;;;4.45;1.15;;;;;;;9.58;100.00;100484.03;5073866;28;20087;-49
2023/12/29 10:28:06;;;;;;;3.53;1.30;;;;;;;9.60;100.00;100495.28;5072999;28;20523;-50
2023/12/29 10:30:34;;;;;;;5.43;1.40;;;;;;;9.59;100.00;100493.59;5069028;28;20418;-49
2023/12/29 10:33:03;;;;;;;2.67;1.30;;;;;;;9.58;100.00;100501.59;5071836;28;20037;-50
2023/12/29 10:35:37;;;;;;;5.00;1.50;;;;;;;9.61;100.00;100501.38;5073742;28;20045;-49
2023/12/29 10:38:11;;;;;;;5.20;1.58;;;;;;;9.63;100.00;100499.50;5073513;28;20055;-50
2023/12/29 10:40:43;;;;;;;5.90;2.00;;;;;;;9.66;100.00;100498.47;5073737;28;20701;-50
2023/12/29 10:43:12;;;;;;;5.72;1.73;;;;;;;9.66;100.00;100503.72;5073440;28;20123;-49
2023/12/29 10:45:42;;;;;;;9.02;2.45;;;;;;;9.68;100.00;100505.28;5073698;28;20064;-52
2023/12/29 10:48:24;;;;;;;6.68;2.38;;;;;;;9.71;100.00;100499.81;5073401;28;20043;-46
2023/12/29 10:50:53;;;;;;;6.28;1.42;;;;;;;9.77;100.00;100495.94;5073356;28;20135;-47
2023/12/29 10:53:24;;;;;;;;;;;;;;;9.80;100.00;100495.72;5073596;28;20041;-46
2023/12/29 10:55:52;;;;;;;4.75;1.10;;;;;;;9.78;100.00;100498.47;5073292;28;20593;-47
2023/12/29 10:58:21;;;;;;;6.78;1.63;;;;;;;9.80;100.00;100500.97;5073277;28;20048;-47
2023/12/29 11:00:49;;;;;;;2.30;1.30;;;;;;;9.81;100.00;100493.00;5073324;28;20074;-46
2023/12/29 11:03:19;;;;;;;3.50;1.42;;;;;;;9.84;100.00;100507.72;5073294;28;20045;-47
2023/12/29 11:05:50;;;;;;;3.80;1.42;;;;;;;9.84;100.00;100499.81;5073613;28;20057;-50
2023/12/29 11:08:23;;;;;;;3.13;1.33;;;;;;;9.90;100.00;100502.06;5071869;28;20150;-47
2023/12/29 11:10:51;;;;;;;3.88;1.40;;;;;;;9.95;100.00;100509.59;5072956;28;20102;-45
2023/12/29 11:13:20;;;;;;;4.03;1.20;;;;;;;9.97;100.00;100513.00;5072922;28;20044;-45
2023/12/29 11:15:48;;;;;;;3.90;1.35;;;;;;;10.03;100.00;100509.09;5072829;28;20064;-47
2023/12/29 11:18:18;;;;;;;3.38;1.10;;;;;;;10.06;100.00;100509.75;5072779;28;20054;-46
2023/12/29 11:20:47;;;;;;;2.95;1.40;;;;;;;10.10;100.00;100521.72;5071057;28;20053;-46
2023/12/29 11:23:15;;;;;;;3.60;1.20;;;;;;;10.10;100.00;100511.22;5068131;28;20048;-46
2023/12/29 11:25:46;;;;;;;3.20;1.23;;;;;;;10.17;100.00;100516.91;5071303;28;20128;-47
2023/12/29 11:28:15;;;;;;;4.63;1.60;;;;;;;10.17;100.00;100511.63;5072452;28;20052;-47
2023/12/29 11:30:43;;;;;;;3.47;1.35;;;;;;;10.21;100.00;100515.72;5072477;28;20040;-46